Thursday, May 24, 2018, 12:28 AM EDT
Back to Local

KAVP, Wilkes-barre/scranton International

Location: Pittston, PA, United States Lat: 41.333
Local Time: 12:28 AM EDT ( 4:28 GMT) Lon: -75.733
Time Zone: US/Eastern Elev: 961 ft

Show me the last for .
Show Decoded

2018-05-23 23:54 METAR KAVP 240354Z 16003KT 10SM CLR 13/12 A3008 RMK AO2 SLP183 T01280117 =
2018-05-23 22:54 METAR KAVP 240254Z 00000KT 10SM CLR 14/13 A3008 RMK AO2 SLP181 T01390128 53016 =
2018-05-23 21:54 METAR KAVP 240154Z 12004KT 10SM CLR 16/13 A3006 RMK AO2 SLP175 T01560128 =
2018-05-23 20:54 METAR KAVP 240054Z 00000KT 10SM CLR 17/12 A3004 RMK AO2 SLP166 T01720122 =
2018-05-23 19:54 METAR KAVP 232354Z 26004KT 10SM CLR 23/10 A3003 RMK AO2 SLP160 T02330100 10250
                 20222 53005 =
2018-05-23 18:54 METAR KAVP 232254Z 29006KT 10SM CLR 24/12 A3002 RMK AO2 SLP158 T02440117 =
2018-05-23 17:54 METAR KAVP 232154Z 33009KT 10SM CLR 25/10 A3001 RMK AO2 SLP155 T02500100 =
2018-05-23 16:58 METAR KAVP 232058Z 31008KT 10SM CLR 25/10 A3001 RMK AO2 T02500100 =
2018-05-23 16:54 METAR KAVP 232054Z 30012G15KT 10SM FEW055 25/10 A3001 RMK AO2 SLP155 T02500100
                 58006 =
2018-05-23 15:54 METAR KAVP 231954Z 36011G15KT 10SM FEW050 24/13 A3002 RMK AO2 SLP159 T02390128 =
2018-05-23 14:54 METAR KAVP 231854Z 02008KT 10SM FEW043 23/13 A3003 RMK AO2 SLP164 T02280133 =
2018-05-23 13:54 METAR KAVP 231754Z 35004KT 10SM FEW041 22/13 A3003 RMK AO2 SLP163 T02220133
                 10222 20161 58004 =
2018-05-23 12:54 METAR KAVP 231654Z 32008KT 290V350 10SM FEW035 21/13 A3003 RMK AO2 SLP166
                 T02060128 =
2018-05-23 11:54 METAR KAVP 231554Z 32009KT 10SM CLR 19/13 A3004 RMK AO2 SLP167 T01890133 =
2018-05-23 11:20 METAR KAVP 231520Z 36012KT 10SM SCT021 18/12 A3004 RMK AO2 T01830122 =
2018-05-23 10:54 METAR KAVP 231454Z 03006KT 10SM OVC021 17/13 A3004 RMK AO2 SLP169 T01670128
                 53022 =
2018-05-23 09:54 METAR KAVP 231354Z 34014G21KT 10SM BKN016 BKN025 17/14 A3001 RMK AO2 SLP159
                 T01670144 =
2018-05-23 08:54 METAR KAVP 231254Z 31009KT 10SM BKN010 OVC013 17/16 A2999 RMK AO2 SLP150
                 T01670156 =
2018-05-23 08:41 METAR KAVP 231241Z 31009KT 10SM BKN010 OVC014 17/16 A2998 RMK AO2 T01670156 $ =
2018-05-23 08:32 METAR KAVP 231232Z 31006KT 10SM BKN009 OVC014 17/16 A2998 RMK AO2 T01720156 $ =
2018-05-23 07:57 METAR KAVP 231157Z 00000KT 3SM R04/2000VP6000FT BR SCT006 BKN011 OVC050 16/16
                 A2997 =
2018-05-23 07:54 METAR KAVP 231154Z 00000KT 1/4SM R04/1600VP6000FT FG FEW004 BKN011 OVC018 16/16
                 A2997 RMK AO2 RAB02E31 SLP146 P0000 60057 70119 T01610161 10161 20150 51019 $ =
2018-05-23 07:38 METAR KAVP 231138Z 00000KT 1/4SM R04/2000VP6000FT FG SCT007 BKN017 OVC049 16/16
                 A2998 RMK AO2 RAB02E31 P0000 T01610161 $ =
2018-05-23 07:11 METAR KAVP 231111Z 00000KT 1/4SM R04/P6000FT -RA FG BKN004 OVC008 16/16 A2997
                 RMK AO2 RAB02 P0000 T01560156 $ =
2018-05-23 06:54 METAR KAVP 231054Z 31004KT 3/4SM R04/P6000FT BR BKN004 OVC010 16/16 A2997 RMK
                 AO2 SLP143 T01560156 $ =
2018-05-23 06:42 METAR KAVP 231042Z 00000KT 1/2SM R04/P6000FT FG OVC004 16/16 A2996 RMK AO2
                 T01560156 $ =
2018-05-23 06:06 METAR KAVP 231006Z 01005KT 1/4SM R04/1200V4500FT FG BKN005 OVC028 15/15 A2994
                 RMK AO2 T01500150 $ =
2018-05-23 05:54 METAR KAVP 230954Z 01005KT 1/4SM R04/2200VP6000FT FG SCT005 OVC028 16/16 A2993
                 RMK AO2 RAE21B40E49 TSE05 SLP130 P0005 T01560156 $ =
2018-05-23 05:25 METAR KAVP 230925Z 00000KT 8SM SCT007 BKN026 OVC070 16/16 A2992 RMK AO2 RAE21
                 TSE05 P0005 T01560156 $ =
2018-05-23 05:06 METAR KAVP 230906Z 00000KT 4SM -RA BR FEW010 BKN033 OVC070 16/16 A2992 RMK AO2
                 TSE05 P0004 T01560156 $ =
2018-05-23 05:02 METAR KAVP 230902Z 05004KT 3SM TSRA BR SCT012 BKN028 OVC070 16/16 A2992 RMK AO2
                 P0004 T01560156 $ =
2018-05-23 04:54 METAR KAVP 230854Z 00000KT 1 1/4SM R04/3500VP6000FT +TSRA BR FEW010 BKN014
                 OVC030 16/16 A2992 RMK AO2 TSB50 SLP126 P0040 60052 T01560156 53003 $ =
2018-05-23 04:51 METAR KAVP 230851Z 23003KT 1SM R04/3500VP6000FT +TSRA BR BKN014 BKN021 OVC038
                 16/16 A2991 RMK AO2 TSB50 P0036 $ =
2018-05-23 04:46 METAR KAVP 230846Z 21004KT 3/4SM R04/3500VP6000FT +RA BR FEW006 BKN014 OVC022
                 16/16 A2991 RMK AO2 P0019 T01560156 $ =
2018-05-23 04:39 METAR KAVP 230839Z VRB03KT 1 3/4SM R04/6000VP6000FT +RA BR BKN014 OVC022 16/16
                 A2991 RMK AO2 P0007 T01560156 $ =
2018-05-23 04:32 METAR KAVP 230832Z 00000KT 5SM RA BR OVC014 16/16 A2990 RMK AO2 P0002 T01560156
                 $ =
2018-05-23 04:04 METAR KAVP 230804Z 00000KT 5SM -RA BR SCT006 BKN019 OVC029 15/15 A2990 RMK AO2
                 P0000 T01500150 $ =
2018-05-23 03:54 METAR KAVP 230754Z 13003KT 3SM R04/6000VP6000FT RA BR BKN005 BKN029 OVC070 15/15
                 A2991 RMK AO2 SLP123 P0007 T01500150 $ =
2018-05-23 03:09 METAR KAVP 230709Z 04004KT 7SM -RA BKN006 BKN012 OVC110 15/15 A2991 RMK AO2
                 P0001 T01500150 $ =
2018-05-23 03:01 METAR KAVP 230701Z 02003KT 7SM -RA BKN011 BKN055 OVC070 15/15 A2991 RMK AO2
                 P0000 T01500150 $ =
2018-05-23 02:54 METAR KAVP 230654Z 00000KT 8SM -RA SCT013 BKN055 OVC090 15/15 A2991 RMK AO2
                 RAB01 SLP124 P0005 T01500150 $ =
2018-05-23 02:49 METAR KAVP 230649Z 00000KT 5SM -RA BR SCT015 BKN070 OVC110 15/15 A2991 RMK AO2
                 RAB01 P0004 $ =
2018-05-23 02:37 METAR KAVP 230637Z 00000KT 2SM R04/3500VP6000FT RA BR FEW018 BKN075 OVC095 15/15
                 A2990 RMK AO2 RAB01 P0002 T01500150 $ =
2018-05-23 01:54 METAR KAVP 230554Z 09003KT 7SM FEW048 BKN060 OVC085 15/15 A2993 RMK AO2 RAE05
                 SLP131 P0001 60023 T01500150 10156 20150 58007 $ =
2018-05-23 00:54 METAR KAVP 230454Z 00000KT 5SM -RA BR FEW033 BKN085 OVC100 16/15 A2993 RMK AO2
                 LTG DSNT SE-SW SLP132 P0019 T01560150 401720133 $ =
2018-05-23 00:45 METAR KAVP 230445Z 00000KT 3SM R04/2600VP6000FT RA BR FEW038 BKN047 OVC085 15/15
                 A2992 RMK AO2 LTG DSNT SE AND SW PRESFR P0017 T01500150 $ =
2018-05-23 00:30 METAR KAVP 230430Z 22004KT 1 3/4SM R04/5500VP6000FT +RA BR FEW008 BKN034 OVC047
                 15/15 A2995 RMK AO2 LTG DSNT SE-SW P0007 T01500150 $ =

Support USWX by starting your Amazon purchase here.